Latest Weather Observations for Warrnambool

IDV60801

Issued at 10:32 am EDT Wednesday 22 February 2017 (issued every 30 minutes, with the page automatically refreshed every 10 minutes)

About weather observations | Map of weather stations | Latest weather observations for VIC | Other Formats
Station Details ID: 090186 Name: WARRNAMBOOL AIRPORT NDB Lat: -38.29 Lon: 142.45 Height: 70.8 m
Data from the previous 72 hours. | See also: Recent months at Warrnambool
Date/Time
EDT
Temp
°C
App
Temp
°C
Dew
Point
°C
Rel
Hum
%
Delta-T
°C
Wind Press
QNH
hPa
Press
MSL
hPa
Rain since
9am
mm
Dir  Spd
km/h
Gust
km/h
Spd
kts
Gust
kts
22/10:30am 25.7 17.8 6.3 29 10.1 NNE 37 50 20 27 1011.4 1011.3 0.0
22/10:00am 24.4 17.1 7.1 33 9.1 NNE 35 44 19 24 1011.6 1011.5 0.0
22/09:30am 22.4 14.7 7.0 37 8.0 NNE 37 48 20 26 1011.7 1011.6 0.0
22/09:00am 20.4 13.8 7.7 44 6.6 NNE 32 43 17 23 1012.0 1011.9 0.0
22/08:30am 17.3 12.1 7.4 52 5.0 NNE 24 35 13 19 1012.1 1012.0 0.0
22/08:00am 15.6 10.3 6.9 56 4.3 NNE 24 30 13 16 1012.4 1012.3 0.0
22/07:30am 14.1 9.7 6.5 60 3.7 NNE 19 26 10 14 1012.3 1012.2 0.0
22/07:00am 12.9 8.5 6.5 65 3.1 NNE 19 24 10 13 1012.4 1012.3 0.0
22/06:30am 12.6 8.3 6.9 68 2.7 NE 19 22 10 12 1012.6 1012.5 0.0
22/06:00am 12.7 8.5 7.4 70 2.6 NE 19 20 10 11 1012.5 1012.4 0.0
22/05:30am 12.5 8.8 8.0 74 2.2 NE 17 20 9 11 1012.7 1012.6 0.0
22/05:00am 12.3 9.0 8.2 76 2.0 NE 15 20 8 11 1012.6 1012.5 0.0
22/04:30am 12.6 9.2 9.1 79 1.8 NE 17 24 9 13 1012.7 1012.6 0.0
22/04:00am 13.0 9.7 9.4 79 1.8 NE 17 22 9 12 1013.1 1012.9 0.0
22/03:30am 13.3 10.1 9.9 80 1.8 NE 17 20 9 11 1013.7 1013.5 0.0
22/03:00am 13.5 10.4 10.3 81 1.7 NE 17 22 9 12 1014.1 1013.9 0.0
22/02:30am 13.3 10.7 10.7 84 1.4 NE 15 20 8 11 1014.5 1014.3 0.0
22/02:00am 13.9 10.5 11.2 84 1.4 NE 20 28 11 15 1014.8 1014.6 0.0
22/01:30am 14.0 10.8 11.3 84 1.4 NE 19 30 10 16 1015.3 1015.1 0.0
22/01:00am 14.1 10.9 11.4 84 1.4 NE 19 26 10 14 1015.7 1015.5 0.0
22/12:30am 14.4 11.2 11.4 82 1.6 NE 19 26 10 14 1016.1 1015.9 0.0
22/12:00am 14.9 11.5 11.3 79 1.9 NE 20 30 11 16 1016.2 1016.0 0.0
 
Date/Time
EDT
Temp
°C
App
Temp
°C
Dew
Point
°C
Rel
Hum
%
Delta-T
°C
Wind Press
QNH
hPa
Press
MSL
hPa
Rain since
9am
mm
Dir  Spd
km/h
Gust
km/h
Spd
kts
Gust
kts
21/11:30pm 15.3 12.5 11.5 78 2.0 NE 17 30 9 16 1016.5 1016.3 0.0
21/11:00pm 14.9 13.3 11.7 81 1.7 NE 11 17 6 9 1016.8 1016.6 0.0
21/10:30pm 14.7 12.8 11.8 83 1.6 NE 13 17 7 9 1016.9 1016.7 0.0
21/10:00pm 14.0 12.8 11.5 85 1.3 E 9 11 5 6 1017.0 1016.8 0.0
21/09:30pm 14.4 12.8 11.7 84 1.5 ESE 11 15 6 8 1017.0 1016.8 0.0
21/09:00pm 14.8 12.9 11.8 82 1.6 ESE 13 17 7 9 1016.8 1016.6 0.0
21/08:30pm 15.8 13.5 11.8 77 2.2 SE 15 20 8 11 1016.8 1016.6 0.0
21/08:00pm 16.9 14.7 12.0 73 2.7 SE 15 19 8 10 1016.6 1016.4 0.0
21/07:30pm 17.9 15.0 12.4 70 3.1 SE 19 24 10 13 1016.5 1016.3 0.0
21/07:00pm 18.6 15.6 12.6 68 3.4 SSE 20 28 11 15 1016.7 1016.5 0.0
21/06:30pm 19.3 16.1 13.0 67 3.6 SSE 22 30 12 16 1016.8 1016.6 0.0
21/06:00pm 19.2 15.0 12.5 65 3.8 SSE 26 33 14 18 1017.0 1016.8 0.0
21/05:30pm 20.0 16.2 12.5 62 4.2 SE 24 30 13 16 1017.0 1016.8 0.0
21/05:00pm 20.3 16.5 12.5 61 4.4 SE 24 32 13 17 1017.2 1017.0 0.0
21/04:30pm 20.1 16.2 12.1 60 4.5 SSE 24 30 13 16 1017.9 1017.7 0.0
21/04:00pm 20.4 16.9 12.1 59 4.6 SSE 22 30 12 16 1018.1 1017.9 0.0
21/03:30pm 21.9 18.8 13.5 59 4.9 SE 22 32 12 17 1018.4 1018.2 0.0
21/03:00pm 22.2 20.8 9.7 45 6.8 N 7 13 4 7 1019.0 1018.8 0.0
21/02:30pm 21.1 19.3 8.0 43 6.8 NW 7 15 4 8 1019.3 1019.1 0.0
21/02:00pm 20.7 18.9 8.0 44 6.6 S 7 11 4 6 1019.7 1019.5 0.0
21/01:30pm 20.3 17.4 8.3 46 6.3 NE 13 22 7 12 1020.2 1020.0 0.0
21/01:00pm 20.0 18.0 8.7 48 5.9 ENE 9 19 5 10 1020.7 1020.5 0.0
21/12:30pm 19.9 18.6 10.0 53 5.3 NNW 7 17 4 9 1020.9 1020.7 0.0
21/12:00pm 18.1 15.7 8.7 54 4.9 ENE 11 28 6 15 1021.1 1020.9 0.0
21/11:30am 17.9 15.7 9.3 57 4.5 NNE 11 19 6 10 1021.4 1021.2 0.0
21/11:00am 17.5 15.8 9.9 61 4.0 NE 9 15 5 8 1021.5 1021.3 0.0
21/10:30am 17.2 15.4 9.6 61 4.0 NE 9 17 5 9 1021.4 1021.2 0.0
21/10:00am 16.4 15.3 10.5 68 3.1 NNE 7 11 4 6 1021.5 1021.3 0.0
21/09:30am 15.0 13.9 10.8 76 2.2 N 7 9 4 5 1021.6 1021.4 0.0
21/09:00am 12.9 12.1 11.6 92 0.7 N 7 9 4 5 1021.6 1021.4 0.2
21/08:30am 10.5 9.1 9.6 94 0.5 N 7 9 4 5 1021.5 1021.3 0.2
21/08:00am 8.1 5.7 7.2 94 0.4 N 9 11 5 6 1020.9 1020.7 0.2
21/07:30am 5.4 2.1 4.5 94 0.4 N 11 13 6 7 1020.6 1020.4 0.2
21/07:00am 5.2 2.2 4.3 94 0.4 N 9 9 5 5 1020.1 1019.9 0.2
21/06:30am 5.1 2.1 4.2 94 0.4 N 9 11 5 6 1020.0 1019.8 0.2
21/06:00am 5.4 2.5 4.5 94 0.4 NNW 9 11 5 6 1019.7 1019.5 0.2
21/05:30am 5.5 2.6 4.6 94 0.4 N 9 11 5 6 1019.3 1019.1 0.2
21/05:00am 5.6 2.7 4.7 94 0.4 NNW 9 11 5 6 1019.2 1019.0 0.2
21/04:30am 6.0 3.2 5.1 94 0.4 N 9 11 5 6 1019.1 1018.9 0.2
21/04:00am 5.8 2.9 4.9 94 0.4 N 9 11 5 6 1019.0 1018.8 0.2
21/03:30am 5.7 2.8 4.8 94 0.4 NNW 9 9 5 5 1019.2 1019.0 0.2
21/03:00am 6.4 3.7 5.5 94 0.4 NNW 9 11 5 6 1019.1 1018.9 0.2
21/02:30am 7.0 4.8 6.1 94 0.4 NW 7 9 4 5 1019.2 1019.0 0.2
21/02:00am 7.5 5.0 6.6 94 0.4 NW 9 11 5 6 1019.3 1019.1 0.2
21/01:30am 8.2 5.5 7.3 94 0.4 NW 11 13 6 7 1019.3 1019.1 0.2
21/01:00am 8.6 6.3 7.4 92 0.6 NW 9 13 5 7 1019.5 1019.3 0.2
21/12:30am 9.1 7.2 7.7 91 0.7 NW 7 9 4 5 1019.6 1019.4 0.2
21/12:00am 10.1 8.5 8.7 91 0.7 WNW 7 9 4 5 1019.6 1019.4 0.2
 
Date/Time
EDT
Temp
°C
App
Temp
°C
Dew
Point
°C
Rel
Hum
%
Delta-T
°C
Wind Press
QNH
hPa
Press
MSL
hPa
Rain since
9am
mm
Dir  Spd
km/h
Gust
km/h
Spd
kts
Gust
kts
20/11:30pm 9.6 7.9 8.2 91 0.7 WNW 7 7 4 4 1019.6 1019.4 0.2
20/11:00pm 9.7 7.8 7.6 87 1.0 WNW 7 7 4 4 1019.4 1019.2 0.2
20/10:30pm 10.9 9.2 8.3 84 1.3 SW 7 9 4 5 1019.3 1019.1 0.2
20/10:00pm 11.2 9.2 8.6 84 1.3 SW 9 11 5 6 1019.3 1019.1 0.2
20/09:30pm 11.9 9.6 8.9 82 1.5 SW 11 13 6 7 1019.2 1019.0 0.2
20/09:00pm 12.4 10.2 9.2 81 1.6 SW 11 13 6 7 1018.9 1018.7 0.2
20/08:30pm 13.1 10.1 9.2 77 2.0 SSW 15 19 8 10 1018.5 1018.3 0.2
20/08:00pm 14.7 11.4 9.7 72 2.6 SSW 17 20 9 11 1018.2 1018.0 0.2
20/07:30pm 15.0 11.1 9.4 69 2.9 SSW 20 26 11 14 1017.7 1017.5 0.2
20/07:00pm 16.2 11.6 9.6 65 3.4 SSW 24 32 13 17 1017.4 1017.2 0.2
20/06:30pm 16.3 11.1 8.8 61 3.9 SW 26 35 14 19 1017.3 1017.1 0.2
20/06:00pm 16.1 10.2 9.1 63 3.6 SW 30 39 16 21 1017.1 1016.9 0.2
20/05:30pm 16.6 10.9 9.8 64 3.6 SW 30 41 16 22 1016.8 1016.6 0.2
20/05:00pm 16.3 10.5 9.3 63 3.6 SW 30 39 16 21 1016.6 1016.4 0.2
20/04:30pm 16.9 10.6 9.1 60 4.1 SW 32 43 17 23 1016.5 1016.3 0.2
20/04:00pm 16.9 10.7 9.3 61 4.0 SW 32 41 17 22 1016.4 1016.2 0.2
20/03:30pm 17.7 11.0 9.8 60 4.2 SW 35 43 19 23 1016.3 1016.1 0.2
20/03:00pm 16.9 11.1 10.7 67 3.3 SW 32 44 17 24 1016.2 1016.0 0.2
20/02:30pm 17.8 12.2 11.6 67 3.4 SW 32 41 17 22 1016.2 1016.0 0.2
20/02:00pm 17.2 11.8 10.8 66 3.4 SW 30 41 16 22 1016.2 1016.0 0.2
20/01:30pm 15.4 9.6 10.8 74 2.4 SW 32 41 17 22 1016.2 1016.0 0.2
20/01:00pm 16.7 10.4 9.1 61 3.9 SW 32 43 17 23 1016.0 1015.8 0.2
20/12:30pm 17.5 11.8 9.7 60 4.1 SW 30 43 16 23 1016.0 1015.8 0.0
20/12:00pm 16.9 11.0 10.3 65 3.5 SSW 32 39 17 21 1016.0 1015.8 0.0
20/11:30am 17.3 11.5 10.7 65 3.5 SW 32 43 17 23 1016.0 1015.8 0.0
20/11:00am 15.7 10.3 9.6 67 3.2 SW 28 43 15 23 1016.0 1015.8 0.0
20/10:30am 16.6 10.5 9.8 64 3.6 SW 32 39 17 21 1015.9 1015.7 0.0
20/10:00am 15.0 9.0 8.5 65 3.3 SW 30 41 16 22 1015.6 1015.4 0.0
20/09:30am 15.3 9.9 9.4 68 3.1 SW 28 35 15 19 1015.4 1015.2 0.0
20/09:00am 15.0 8.5 8.3 64 3.4 SW 32 37 17 20 1015.0 1014.8 8.0
20/08:30am 14.4 9.1 8.6 68 2.9 SW 26 33 14 18 1014.7 1014.5 8.0
20/08:00am 13.5 8.7 8.8 73 2.4 SW 24 33 13 18 1014.3 1014.1 8.0
20/07:30am 13.1 8.4 9.2 77 2.0 SSW 24 32 13 17 1013.8 1013.6 8.0
20/07:00am 12.9 8.5 9.0 77 2.0 SSW 22 28 12 15 1013.5 1013.3 8.0
20/06:30am 13.2 8.5 9.1 76 2.1 SSW 24 33 13 18 1013.2 1013.0 8.0
20/06:00am 13.0 8.3 9.4 79 1.8 SW 24 32 13 17 1013.0 1012.8 8.0
20/05:30am 12.6 7.0 10.0 84 1.3 SSW 30 35 16 19 1012.9 1012.7 8.0
20/05:00am 12.9 7.0 9.0 77 2.0 SW 30 39 16 21 1012.6 1012.5 8.0
20/04:30am 12.7 7.4 9.7 82 1.5 SW 28 37 15 20 1012.6 1012.5 8.0
20/04:00am 12.5 7.9 9.5 82 1.5 SW 24 35 13 19 1012.4 1012.3 8.0
20/03:30am 12.1 8.5 10.5 90 0.8 WSW 20 30 11 16 1012.3 1012.2 8.0
20/03:08am 11.6 5.6 10.0 90 0.8 SW 32 50 17 27 1012.4 1012.3 8.0
20/03:00am 12.0 7.2 10.4 90 0.8 SW 26 50 14 27 1012.4 1012.3 7.4
20/02:59am 12.1 7.7 10.3 89 0.9 SW 24 50 13 27 1012.4 1012.3 7.4
20/02:42am 11.5 8.0 10.1 91 0.7 WSW 19 24 10 13 1012.2 1012.1 7.4
20/02:30am 11.4 4.7 9.8 90 0.8 SW 35 59 19 32 1012.4 1012.3 7.4
20/02:29am 11.4 4.7 9.8 90 0.8 SW 35 59 19 32 1012.4 1012.3 7.4
20/02:22am 12.6 7.3 9.8 83 1.4 SW 28 54 15 29 1012.4 1012.3 7.0
20/02:00am 12.3 7.1 8.8 79 1.8 SW 26 33 14 18 1012.4 1012.3 7.0
20/01:30am 12.2 6.9 9.8 85 1.2 SW 28 35 15 19 1012.5 1012.4 7.0
20/01:00am 13.0 7.6 8.1 72 2.4 SW 26 35 14 19 1012.5 1012.4 6.8
20/12:30am 12.7 7.0 8.2 74 2.2 SW 28 37 15 20 1012.6 1012.5 6.8
20/12:00am 12.8 6.7 8.1 73 2.3 SW 30 39 16 21 1012.5 1012.4 6.8
 
Date/Time
EDT
Temp
°C
App
Temp
°C
Dew
Point
°C
Rel
Hum
%
Delta-T
°C
Wind Press
QNH
hPa
Press
MSL
hPa
Rain since
9am
mm
Dir  Spd
km/h
Gust
km/h
Spd
kts
Gust
kts
19/11:30pm 13.0 7.4 8.7 75 2.2 SW 28 35 15 19 1012.5 1012.4 6.8
19/11:00pm 12.8 7.6 8.7 76 2.1 SW 26 35 14 19 1012.6 1012.5 6.8
19/10:30pm 12.7 6.0 7.4 70 2.6 SW 32 41 17 22 1012.6 1012.5 6.8
19/10:00pm 12.4 7.6 8.9 79 1.8 SW 24 35 13 19 1012.3 1012.2 6.8
19/09:30pm 12.4 6.5 7.7 73 2.3 SW 28 37 15 20 1012.1 1012.0 6.8
19/09:00pm 12.6 7.7 8.5 76 2.0 SW 24 35 13 19 1011.8 1011.7 6.8
19/08:30pm 12.5 6.9 8.8 78 1.9 SW 28 35 15 19 1011.5 1011.4 6.8
19/08:00pm 13.0 6.8 9.3 78 1.9 SW 32 41 17 22 1011.2 1011.1 6.8
19/07:30pm 13.9 8.1 9.3 74 2.4 WSW 30 39 16 21 1010.8 1010.7 6.8
19/07:00pm 13.6 6.8 7.6 67 3.0 SW 33 43 18 23 1010.6 1010.5 6.8
19/06:30pm 14.4 6.5 7.7 64 3.3 SW 39 50 21 27 1010.4 1010.3 6.8
19/06:00pm 14.7 7.0 8.6 67 3.1 SW 39 50 21 27 1010.2 1010.1 6.8
19/05:30pm 14.0 8.1 9.2 73 2.5 SW 30 41 16 22 1009.9 1009.7 6.8
19/05:00pm 15.1 7.4 8.8 66 3.2 SW 39 52 21 28 1009.9 1009.7 6.8
19/04:30pm 14.2 7.3 9.0 71 2.6 SW 35 52 19 28 1009.9 1009.7 6.8
19/04:00pm 12.9 5.0 9.4 79 1.8 SW 41 52 22 28 1010.1 1010.0 6.8
19/03:30pm 14.5 6.9 8.9 69 2.9 SW 39 61 21 33 1010.0 1009.8 5.8
19/03:24pm 14.7 6.8 10.7 77 2.1 SW 43 61 23 33 1010.0 1009.8 5.8
19/03:00pm 14.0 8.1 10.4 79 1.9 WSW 32 48 17 26 1010.0 1009.8 5.8
19/02:58pm 14.3 8.9 10.9 80 1.8 WSW 30 48 16 26 1010.0 1009.8 5.8
19/02:55pm 13.8 9.0 11.7 87 1.1 WSW 28 39 15 21 1010.0 1009.8 5.8
19/02:37pm 10.3 3.8 8.2 87 1.0 WSW 32 54 17 29 1010.6 1010.5 5.6
19/02:34pm 11.2 5.7 9.1 87 1.1 WSW 28 54 15 29 1010.7 1010.6 4.8
19/02:30pm 11.8 6.5 9.9 88 1.0 WSW 28 43 15 23 1010.4 1010.3 4.4
19/02:03pm 15.4 8.6 9.3 67 3.2 WSW 35 54 19 29 1009.8 1009.6 3.8
19/02:00pm 15.2 8.6 10.0 71 2.7 WSW 35 44 19 24 1009.8 1009.6 3.8
19/01:32pm 13.9 7.8 10.3 79 1.9 WSW 33 52 18 28 1010.0 1009.8 3.8
19/01:30pm 14.1 8.5 10.3 78 2.0 WSW 30 43 16 23 1010.0 1009.8 3.8
19/01:25pm 13.4 9.5 10.9 85 1.3 WSW 22 37 12 20 1010.2 1010.1 3.8
19/01:07pm 10.2 3.3 7.4 83 1.3 WSW 33 65 18 35 1010.5 1010.4 3.8
19/01:06pm 10.4 3.7 7.5 82 1.4 WSW 32 65 17 35 1010.7 1010.6 3.6
19/01:03pm 14.5 8.9 8.9 69 2.9 WSW 28 65 15 35 1010.4 1010.3 2.0
19/01:00pm 15.8 11.2 11.0 73 2.6 WSW 26 35 14 19 1010.2 1010.1 2.0
19/12:33pm 12.1 3.7 9.5 84 1.3 SW 44 63 24 34 1010.7 1010.6 1.6
19/12:30pm 13.0 3.4 8.1 72 2.4 SW 48 63 26 34 1010.7 1010.6 1.6
19/12:16pm 15.1 6.5 8.3 64 3.4 SW 43 61 23 33 1010.5 1010.4 1.6
19/12:00pm 16.3 9.6 9.7 65 3.5 WSW 35 48 19 26 1010.5 1010.4 1.6
19/11:30am 14.0 7.1 7.1 63 3.4 SW 33 44 18 24 1010.5 1010.4 1.6
19/11:00am 14.3 8.1 9.3 72 2.6 SW 32 43 17 23 1010.6 1010.5 1.6

Other Formats:

Comma delimited format used in spreadsheet applications
http://www.bom.gov.au/fwo/IDV60801/IDV60801.94837.axf

JavaScript Object Notation format (JSON) in row-major order
http://www.bom.gov.au/fwo/IDV60801/IDV60801.94837.json